KBCE

Bryce Canyon Airport

Bryce Canyon, Utah, USA
METAR KBCE 230653Z AUTO 33004KT 10SM CLR M20/M22 A3032 RMK AO2 SLP326 I1000 T12001222 410501222
Observed Flight Rules
Jan-23 @ 06:53 UTC (31 minutes ago) Visual Flight Rules
Wind Visibility Clouds
330° at 4 knots 10 miles
  • Clear skies
Temperatures Readings
Current -20°C / -4°F
Dewpoint -22°C / -8°F
Humidity 84%
Altimeter 30.32" Hg
Pressure 1032.6 hPa
Elevation 2312
METAR KBCE 230653Z AUTO 33004KT 10SM CLR M20/M22 A3032 RMK AO2 SLP326 I1000 T12001222 410501222
Observed Flight Rules
Jan-23 @ 06:53 UTC
(31 minutes ago)
VFR
Wind Visibility
330° at 4 knots 10 miles
Clouds
  • Clear skies
Temperature Dewpoint
-20°C / -4°F -22°C / -8°F
Humidity Altimeter Pressure
84% 30.32" Hg 1032.6 hPa